Time;durP1;ratioP1;P1;durP2;ratioP2;P2;SDS_P1;SDS_P2;PMS_P1;PMS_P2;Temp;Humidity;BMP_temperature;BMP_pressure;BME280_temperature;BME280_humidity;BME280_pressure;Samples;Min_cycle;Max_cycle;Signal;HPM_P1;HPM_P2
2022/08/07 00:01:29;;;;;;;4.03;2.05;;;;;;;;;;5001539;28;20057;-40
2022/08/07 00:03:57;;;;;;;5.30;1.55;;;;;;;;;;5016344;28;20088;-39
2022/08/07 00:06:26;;;;;;;5.63;1.60;;;;;;;;;;5016030;28;20056;-39
2022/08/07 00:08:52;;;;;;;2.90;1.50;;;;;;;;;;5015811;28;20068;-40
2022/08/07 00:11:22;;;;;;;6.32;1.90;;;;;;;;;;5016309;28;20058;-40
2022/08/07 00:13:48;;;;;;;2.88;1.70;;;;;;;;;;5015676;28;20078;-40
2022/08/07 00:16:18;;;;;;;4.20;2.10;;;;;;;;;;5015457;28;20472;-39
2022/08/07 00:18:49;;;;;;;2.85;1.70;;;;;;;;;;5015604;28;20058;-40
2022/08/07 00:21:18;;;;;;;3.55;1.88;;;;;;;;;;5015761;28;20050;-41
2022/08/07 00:23:54;;;;;;;5.88;2.22;;;;;;;;;;5015357;28;20513;-40
2022/08/07 00:26:24;;;;;;;5.05;1.60;;;;;;;;;;5015738;28;20120;-40
2022/08/07 00:28:55;;;;;;;3.75;1.90;;;;;;;;;;5015309;28;20520;-40
2022/08/07 00:31:24;;;;;;;4.88;1.88;;;;;;;;;;5015549;28;20049;-40
2022/08/07 00:33:52;;;;;;;4.75;1.77;;;;;;;;;;5015370;28;20050;-40
2022/08/07 00:36:22;;;;;;;4.00;2.10;;;;;;;;;;5014283;28;20421;-40
2022/08/07 00:38:59;;;;;;;4.68;1.80;;;;;;;;;;5016093;28;20458;-40
2022/08/07 00:41:27;;;;;;;5.70;1.80;;;;;;;;;;5015171;28;20053;-41
2022/08/07 00:43:57;;;;;;;3.80;2.10;;;;;;;;;;5015261;28;20140;-40
2022/08/07 00:46:27;;;;;;;3.38;1.65;;;;;;;;;;5015215;28;20050;-40
2022/08/07 00:49:00;;;;;;;5.30;1.95;;;;;;;;;;5015375;28;20060;-40
2022/08/07 00:51:27;;;;;;;3.10;1.80;;;;;;;;;;5014809;28;20049;-40
2022/08/07 00:53:57;;;;;;;4.68;1.60;;;;;;;;;;5014985;28;20061;-40
2022/08/07 00:56:25;;;;;;;3.70;2.30;;;;;;;;;;5014959;28;20052;-40
2022/08/07 00:58:55;;;;;;;6.35;2.15;;;;;;;;;;5014958;28;20061;-40
2022/08/07 01:01:23;;;;;;;2.92;1.85;;;;;;;;;;5009928;28;20410;-40
2022/08/07 01:03:51;;;;;;;5.20;2.03;;;;;;;;;;4995339;28;20046;-40
2022/08/07 01:06:21;;;;;;;4.30;2.00;;;;;;;;;;4995534;28;20078;-39
2022/08/07 01:08:47;;;;;;;6.55;1.90;;;;;;;;;;4995208;28;20058;-40
2022/08/07 01:11:25;;;;;;;4.55;1.90;;;;;;;;;;4995116;28;20112;-40
2022/08/07 01:13:54;;;;;;;4.97;2.03;;;;;;;;;;5002190;28;20359;-40
2022/08/07 01:16:22;;;;;;;4.32;2.30;;;;;;;;;;5014880;28;20049;-40
2022/08/07 01:18:51;;;;;;;6.40;2.03;;;;;;;;;;5014471;28;20053;-40
2022/08/07 01:21:24;;;;;;;3.50;1.77;;;;;;;;;;5014627;28;20053;-40
2022/08/07 01:23:53;;;;;;;6.28;2.20;;;;;;;;;;5014304;28;20050;-40
2022/08/07 01:26:22;;;;;;;4.50;1.98;;;;;;;;;;5014538;28;20050;-40
2022/08/07 01:28:53;;;;;;;3.85;1.90;;;;;;;;;;5014131;28;20050;-40
2022/08/07 01:31:20;;;;;;;3.40;1.73;;;;;;;;;;5014512;28;20058;-40
2022/08/07 01:33:48;;;;;;;4.72;2.20;;;;;;;;;;5014301;28;20042;-39
2022/08/07 01:36:16;;;;;;;4.93;2.00;;;;;;;;;;5013976;28;20480;-40
2022/08/07 01:38:57;;;;;;;4.53;2.05;;;;;;;;;;5014425;28;20069;-40
2022/08/07 01:41:27;;;;;;;4.15;1.70;;;;;;;;;;5014282;28;20049;-40
2022/08/07 01:43:54;;;;;;;6.38;2.13;;;;;;;;;;5014050;28;20049;-40
2022/08/07 01:46:22;;;;;;;3.50;1.67;;;;;;;;;;5014222;28;20124;-40
2022/08/07 01:48:51;;;;;;;4.93;2.00;;;;;;;;;;5013924;28;20060;-40
2022/08/07 01:51:20;;;;;;;5.43;1.80;;;;;;;;;;5013508;28;20410;-39
2022/08/07 01:53:59;;;;;;;3.28;1.65;;;;;;;;;;5014648;28;20058;-39
2022/08/07 01:56:32;;;;;;;5.85;2.10;;;;;;;;;;5016446;28;20426;-40
2022/08/07 01:59:00;;;;;;;6.57;2.00;;;;;;;;;;5014072;28;20049;-40
2022/08/07 02:01:35;;;;;;;4.65;1.70;;;;;;;;;;5008178;28;20428;-40
2022/08/07 02:04:12;;;;;;;3.03;1.80;;;;;;;;;;4994498;28;20043;-41
2022/08/07 02:06:48;;;;;;;4.55;2.17;;;;;;;;;;5008026;28;20053;-41
2022/08/07 02:09:25;;;;;;;5.50;2.10;;;;;;;;;;5013809;28;20079;-41
2022/08/07 02:11:55;;;;;;;4.18;1.90;;;;;;;;;;5020714;28;20399;-41
2022/08/07 02:14:23;;;;;;;4.15;1.90;;;;;;;;;;5020811;28;20512;-40
2022/08/07 02:16:54;;;;;;;4.82;1.90;;;;;;;;;;5033322;28;20053;-40
2022/08/07 02:19:22;;;;;;;4.47;2.08;;;;;;;;;;5030571;28;20046;-40
2022/08/07 02:21:51;;;;;;;3.90;1.58;;;;;;;;;;5013515;28;20061;-40
2022/08/07 02:24:24;;;;;;;3.33;1.73;;;;;;;;;;5026167;28;20068;-40
2022/08/07 02:26:54;;;;;;;3.67;1.85;;;;;;;;;;5033036;28;20057;-41
2022/08/07 02:29:21;;;;;;;2.80;1.42;;;;;;;;;;5021324;28;20060;-40
2022/08/07 02:31:52;;;;;;;3.40;1.80;;;;;;;;;;5013585;28;20049;-40
2022/08/07 02:34:20;;;;;;;2.78;1.60;;;;;;;;;;5013677;28;20042;-40
2022/08/07 02:36:47;;;;;;;4.03;1.58;;;;;;;;;;5013437;28;20454;-40
2022/08/07 02:39:15;;;;;;;7.40;1.88;;;;;;;;;;5015505;28;20057;-39
2022/08/07 02:41:52;;;;;;;3.10;2.00;;;;;;;;;;5015896;28;20466;-39
2022/08/07 02:44:23;;;;;;;4.47;1.60;;;;;;;;;;5015724;28;20050;-39
2022/08/07 02:46:53;;;;;;;4.38;1.73;;;;;;;;;;5015146;28;20053;-39
2022/08/07 02:49:21;;;;;;;3.35;1.60;;;;;;;;;;5015401;28;20086;-40
2022/08/07 02:51:50;;;;;;;3.20;1.98;;;;;;;;;;5006217;28;20474;-40
2022/08/07 02:54:20;;;;;;;4.78;2.17;;;;;;;;;;5013048;28;20060;-40
2022/08/07 02:56:53;;;;;;;4.53;1.70;;;;;;;;;;5012800;28;20054;-40
2022/08/07 02:59:24;;;;;;;5.25;1.85;;;;;;;;;;5020587;28;20464;-41
2022/08/07 03:01:53;;;;;;;4.00;1.80;;;;;;;;;;5026089;28;20053;-39
2022/08/07 03:04:22;;;;;;;5.05;1.75;;;;;;;;;;5030385;28;20054;-39
2022/08/07 03:06:50;;;;;;;4.20;1.63;;;;;;;;;;5024086;28;20061;-39
2022/08/07 03:09:27;;;;;;;3.58;1.60;;;;;;;;;;5017089;28;20064;-41
2022/08/07 03:12:09;;;;;;;3.25;1.77;;;;;;;;;;5017019;28;20050;-40
2022/08/07 03:14:37;;;;;;;5.90;2.10;;;;;;;;;;5024476;28;20081;-40
2022/08/07 03:17:05;;;;;;;3.63;1.50;;;;;;;;;;5021505;28;20593;-42
2022/08/07 03:19:32;;;;;;;5.63;1.98;;;;;;;;;;5027318;28;20050;-39
2022/08/07 03:22:02;;;;;;;4.22;1.70;;;;;;;;;;5036478;28;20084;-40
2022/08/07 03:24:30;;;;;;;6.20;1.70;;;;;;;;;;5029871;28;20081;-41
2022/08/07 03:27:02;;;;;;;4.25;1.48;;;;;;;;;;5016314;28;20064;-40
2022/08/07 03:29:36;;;;;;;2.90;1.67;;;;;;;;;;5005064;28;20077;-40
2022/08/07 03:32:07;;;;;;;2.53;1.55;;;;;;;;;;5016637;28;20154;-40
2022/08/07 03:34:43;;;;;;;4.72;2.10;;;;;;;;;;5016396;28;20053;-40
2022/08/07 03:37:13;;;;;;;4.15;1.77;;;;;;;;;;5027278;28;20049;-40
2022/08/07 03:39:42;;;;;;;3.17;1.77;;;;;;;;;;5036247;28;20053;-40
2022/08/07 03:42:17;;;;;;;4.75;1.75;;;;;;;;;;5036098;28;20049;-39
2022/08/07 03:44:45;;;;;;;;;;;;;;;;;;5025018;28;20351;-39
2022/08/07 03:47:15;;;;;;;4.55;2.10;;;;;;;;;;5016145;28;19925;-39
2022/08/07 03:49:42;;;;;;;3.28;1.70;;;;;;;;;;5015115;28;20127;-40
2022/08/07 03:52:09;;;;;;;3.38;1.67;;;;;;;;;;5016158;28;20046;-40
2022/08/07 03:54:40;;;;;;;5.43;2.00;;;;;;;;;;5015968;28;20046;-39
2022/08/07 03:57:07;;;;;;;4.55;2.05;;;;;;;;;;5015953;28;20489;-41
2022/08/07 03:59:39;;;;;;;5.22;2.40;;;;;;;;;;5015584;28;20045;-41
2022/08/07 04:02:07;;;;;;;6.97;2.40;;;;;;;;;;5018472;28;20046;-40
2022/08/07 04:04:37;;;;;;;6.97;2.40;;;;;;;;;;5015987;28;20128;-40
2022/08/07 04:07:06;;;;;;;6.07;2.00;;;;;;;;;;5034824;28;20057;-41
2022/08/07 04:09:36;;;;;;;3.47;1.80;;;;;;;;;;5035955;28;20071;-40
2022/08/07 04:12:11;;;;;;;4.35;2.08;;;;;;;;;;5030886;28;20477;-41
2022/08/07 04:14:53;;;;;;;4.22;1.65;;;;;;;;;;5015517;28;20089;-39
2022/08/07 04:17:23;;;;;;;6.32;2.53;;;;;;;;;;5015856;28;20064;-41
2022/08/07 04:19:53;;;;;;;3.67;2.13;;;;;;;;;;5015814;28;20137;-41
2022/08/07 04:22:21;;;;;;;4.57;2.47;;;;;;;;;;5015697;28;20487;-40
2022/08/07 04:24:59;;;;;;;3.75;1.60;;;;;;;;;;5024272;28;20137;-40
2022/08/07 04:27:29;;;;;;;3.85;1.98;;;;;;;;;;5020217;28;20050;-40
2022/08/07 04:30:01;;;;;;;3.22;1.60;;;;;;;;;;5015189;28;20436;-39
2022/08/07 04:32:30;;;;;;;4.72;2.17;;;;;;;;;;5015675;28;20058;-40
2022/08/07 04:34:57;;;;;;;3.97;1.95;;;;;;;;;;5015477;28;20050;-41
2022/08/07 04:37:25;;;;;;;2.80;1.33;;;;;;;;;;5015315;28;20061;-42
2022/08/07 04:39:55;;;;;;;6.03;1.60;;;;;;;;;;5015330;28;20050;-40
2022/08/07 04:42:29;;;;;;;5.78;1.83;;;;;;;;;;5015209;28;20483;-40
2022/08/07 04:45:07;;;;;;;7.38;2.00;;;;;;;;;;5015269;28;20060;-41
2022/08/07 04:47:38;;;;;;;2.47;1.40;;;;;;;;;;5015074;28;20050;-40
2022/08/07 04:50:08;;;;;;;3.50;1.48;;;;;;;;;;5014505;28;20402;-41
2022/08/07 04:52:44;;;;;;;5.50;1.60;;;;;;;;;;5014961;28;20141;-41
2022/08/07 04:55:17;;;;;;;3.85;1.70;;;;;;;;;;5015069;28;20129;-41
2022/08/07 04:57:51;;;;;;;3.80;1.60;;;;;;;;;;5014889;28;20057;-40
2022/08/07 05:00:29;;;;;;;2.20;1.60;;;;;;;;;;5014183;28;20475;-40
2022/08/07 05:03:05;;;;;;;3.42;1.55;;;;;;;;;;4997789;28;20054;-42
2022/08/07 05:05:44;;;;;;;3.40;1.20;;;;;;;;;;4995477;28;20050;-40
2022/08/07 05:08:14;;;;;;;4.18;1.40;;;;;;;;;;4998746;28;20046;-42
2022/08/07 05:10:45;;;;;;;3.58;1.00;;;;;;;;;;5014942;28;20050;-40
2022/08/07 05:13:16;;;;;;;3.08;1.40;;;;;;;;;;5014886;28;20065;-40
2022/08/07 05:15:51;;;;;;;3.67;1.40;;;;;;;;;;5014589;28;20057;-40
2022/08/07 05:18:20;;;;;;;3.60;1.30;;;;;;;;;;5014474;28;20049;-40
2022/08/07 05:20:56;;;;;;;4.47;1.63;;;;;;;;;;5014406;28;20060;-40
2022/08/07 05:23:27;;;;;;;4.05;1.52;;;;;;;;;;5014109;28;20050;-40
2022/08/07 05:25:56;;;;;;;4.53;1.27;;;;;;;;;;5014159;28;20050;-41
2022/08/07 05:28:24;;;;;;;2.83;1.33;;;;;;;;;;5014345;28;20050;-42
2022/08/07 05:31:00;;;;;;;3.45;1.23;;;;;;;;;;5014533;28;20046;-41
2022/08/07 05:33:31;;;;;;;4.50;1.10;;;;;;;;;;5014320;28;20081;-42
2022/08/07 05:35:58;;;;;;;3.03;1.13;;;;;;;;;;5014405;28;20042;-41
2022/08/07 05:38:27;;;;;;;2.97;1.20;;;;;;;;;;5018249;28;20060;-41
2022/08/07 05:40:55;;;;;;;4.72;1.23;;;;;;;;;;5018914;28;20049;-41
2022/08/07 05:43:24;;;;;;;2.90;1.30;;;;;;;;;;5023631;28;20057;-42
2022/08/07 05:45:51;;;;;;;4.75;1.02;;;;;;;;;;5019252;28;20053;-41
2022/08/07 05:48:22;;;;;;;2.10;1.02;;;;;;;;;;5014327;28;20050;-41
2022/08/07 05:50:48;;;;;;;4.05;1.17;;;;;;;;;;5018790;28;20053;-41
2022/08/07 05:53:16;;;;;;;4.10;0.95;;;;;;;;;;5020972;28;20060;-39
2022/08/07 05:55:44;;;;;;;2.60;1.10;;;;;;;;;;5029068;28;20147;-41
2022/08/07 05:58:12;;;;;;;2.83;1.23;;;;;;;;;;5033638;28;20049;-41
2022/08/07 06:00:40;;;;;;;1.88;1.00;;;;;;;;;;5033551;28;20053;-42
2022/08/07 06:03:09;;;;;;;3.28;1.00;;;;;;;;;;5014661;28;20053;-42
2022/08/07 06:05:45;;;;;;;1.98;0.75;;;;;;;;;;5020010;28;20051;-40
2022/08/07 06:08:15;;;;;;;2.72;0.63;;;;;;;;;;5027110;28;20112;-42
2022/08/07 06:10:43;;;;;;;2.35;0.90;;;;;;;;;;5013580;28;20628;-41
2022/08/07 06:13:11;;;;;;;3.45;0.93;;;;;;;;;;5013927;28;20049;-43
2022/08/07 06:15:39;;;;;;;2.30;1.15;;;;;;;;;;5014260;28;20057;-42
2022/08/07 06:18:07;;;;;;;3.15;1.00;;;;;;;;;;5033640;28;20058;-41
2022/08/07 06:20:38;;;;;;;2.70;0.90;;;;;;;;;;5033501;28;20064;-41
2022/08/07 06:23:09;;;;;;;1.90;0.82;;;;;;;;;;5033161;28;20080;-41
2022/08/07 06:25:38;;;;;;;1.65;1.00;;;;;;;;;;5033126;28;20457;-43
2022/08/07 06:28:07;;;;;;;1.40;0.70;;;;;;;;;;5031660;28;20136;-42
2022/08/07 06:30:35;;;;;;;1.58;0.65;;;;;;;;;;5013795;28;20053;-42
2022/08/07 06:33:04;;;;;;;1.90;0.82;;;;;;;;;;5013966;28;20050;-42
2022/08/07 06:35:32;;;;;;;2.10;0.70;;;;;;;;;;5015883;28;20418;-41
2022/08/07 06:37:59;;;;;;;3.30;0.80;;;;;;;;;;5017655;28;20049;-41
2022/08/07 06:40:29;;;;;;;3.95;0.80;;;;;;;;;;5017464;28;20621;-44
2022/08/07 06:42:59;;;;;;;2.15;0.70;;;;;;;;;;5020631;28;20057;-43
2022/08/07 06:45:28;;;;;;;2.85;0.77;;;;;;;;;;5022510;28;20709;-42
2022/08/07 06:47:56;;;;;;;3.75;0.85;;;;;;;;;;5017635;28;20045;-41
2022/08/07 06:50:26;;;;;;;2.40;0.90;;;;;;;;;;5017396;28;20446;-43
2022/08/07 06:52:57;;;;;;;2.28;0.75;;;;;;;;;;5021839;28;20141;-42
2022/08/07 06:55:27;;;;;;;3.40;0.70;;;;;;;;;;5037454;28;20065;-41
2022/08/07 06:58:13;;;;;;;2.70;0.85;;;;;;;;;;5025472;28;20512;-41
2022/08/07 07:00:43;;;;;;;3.47;0.85;;;;;;;;;;5017645;28;20169;-42
2022/08/07 07:03:12;;;;;;;2.70;1.10;;;;;;;;;;5017176;28;20526;-42
2022/08/07 07:05:42;;;;;;;1.88;0.93;;;;;;;;;;5017288;28;20089;-42
2022/08/07 07:08:11;;;;;;;1.33;0.60;;;;;;;;;;5016918;28;20474;-43
2022/08/07 07:10:47;;;;;;;1.73;0.70;;;;;;;;;;5018037;28;20069;-41
2022/08/07 07:13:20;;;;;;;4.35;1.20;;;;;;;;;;5023561;28;20061;-42
2022/08/07 07:15:59;;;;;;;1.85;0.55;;;;;;;;;;5036190;28;20058;-41
2022/08/07 07:18:30;;;;;;;1.92;0.75;;;;;;;;;;5025393;28;20059;-41
2022/08/07 07:20:59;;;;;;;0.93;0.68;;;;;;;;;;5036644;28;20061;-42
2022/08/07 07:23:29;;;;;;;2.45;0.68;;;;;;;;;;5024623;28;20045;-41
2022/08/07 07:25:59;;;;;;;1.95;0.60;;;;;;;;;;5016968;28;20094;-41
2022/08/07 07:28:32;;;;;;;1.10;0.60;;;;;;;;;;5011765;28;20504;-42
2022/08/07 07:31:04;;;;;;;2.08;0.70;;;;;;;;;;4996867;28;20352;-42
2022/08/07 07:33:35;;;;;;;2.10;0.43;;;;;;;;;;5011688;28;20136;-42
2022/08/07 07:36:04;;;;;;;2.05;0.60;;;;;;;;;;5025400;28;20350;-41
2022/08/07 07:38:35;;;;;;;1.42;0.60;;;;;;;;;;5023980;28;20049;-43
2022/08/07 07:41:04;;;;;;;1.88;0.73;;;;;;;;;;5033648;28;20056;-41
2022/08/07 07:43:35;;;;;;;2.65;0.70;;;;;;;;;;5024921;28;20050;-41
2022/08/07 07:46:05;;;;;;;3.13;0.73;;;;;;;;;;5020724;28;20061;-42
2022/08/07 07:48:33;;;;;;;1.98;0.70;;;;;;;;;;5020181;28;20050;-42
2022/08/07 07:51:02;;;;;;;1.80;0.65;;;;;;;;;;5013517;28;20386;-41
2022/08/07 07:53:33;;;;;;;1.50;0.68;;;;;;;;;;5021391;28;20053;-42
2022/08/07 07:56:00;;;;;;;1.02;0.50;;;;;;;;;;5036319;28;20104;-41
2022/08/07 07:58:37;;;;;;;1.50;0.77;;;;;;;;;;5035872;28;20061;-42
2022/08/07 08:01:19;;;;;;;1.60;0.60;;;;;;;;;;5034084;28;20140;-43
2022/08/07 08:03:49;;;;;;;1.73;0.50;;;;;;;;;;5016060;28;20429;-40
2022/08/07 08:06:18;;;;;;;1.63;0.50;;;;;;;;;;5034826;28;20053;-40
2022/08/07 08:08:48;;;;;;;1.88;0.70;;;;;;;;;;5027328;28;20056;-41
2022/08/07 08:11:18;;;;;;;3.45;0.90;;;;;;;;;;5015947;28;20398;-41
2022/08/07 08:13:47;;;;;;;1.15;0.50;;;;;;;;;;5015474;28;20425;-41
2022/08/07 08:16:23;;;;;;;2.20;0.63;;;;;;;;;;5014976;28;20054;-41
2022/08/07 08:18:57;;;;;;;1.67;0.63;;;;;;;;;;5015888;28;20049;-41
2022/08/07 08:27:10;;;;;;;2.55;0.70;;;;;;;;;;5033227;28;20083;-41
2022/08/07 08:29:42;;;;;;;1.10;0.60;;;;;;;;;;5020443;28;20074;-41
2022/08/07 08:32:19;;;;;;;1.13;0.60;;;;;;;;;;5015601;28;20053;-41
2022/08/07 08:34:47;;;;;;;3.90;0.68;;;;;;;;;;5014618;28;20526;-42
2022/08/07 08:37:17;;;;;;;2.85;0.52;;;;;;;;;;5015163;28;20065;-41
2022/08/07 08:39:48;;;;;;;1.63;0.70;;;;;;;;;;5014804;28;20045;-43
2022/08/07 08:42:29;;;;;;;1.23;0.52;;;;;;;;;;5015518;28;20115;-41
2022/08/07 08:45:00;;;;;;;1.55;0.73;;;;;;;;;;5015285;28;20057;-42
2022/08/07 08:47:33;;;;;;;1.42;0.60;;;;;;;;;;5015586;28;20136;-42
2022/08/07 08:50:12;;;;;;;1.23;0.47;;;;;;;;;;5015362;28;20080;-43
2022/08/07 08:52:48;;;;;;;2.33;0.60;;;;;;;;;;5013868;28;20050;-43
2022/08/07 08:55:30;;;;;;;0.80;0.50;;;;;;;;;;5011380;28;20050;-42
2022/08/07 08:58:06;;;;;;;1.17;0.73;;;;;;;;;;5014462;28;20045;-46
2022/08/07 09:00:35;;;;;;;2.30;0.60;;;;;;;;;;5007598;28;20068;-42
2022/08/07 09:03:10;;;;;;;1.83;0.65;;;;;;;;;;5015241;28;20068;-43
2022/08/07 09:05:41;;;;;;;1.15;0.40;;;;;;;;;;5016441;28;20053;-41
2022/08/07 09:08:22;;;;;;;1.73;0.65;;;;;;;;;;5020451;28;20050;-41
2022/08/07 09:11:01;;;;;;;1.10;0.50;;;;;;;;;;5005597;28;20120;-42
2022/08/07 09:13:35;;;;;;;1.05;0.60;;;;;;;;;;5014027;28;20096;-40
2022/08/07 09:16:12;;;;;;;3.40;0.60;;;;;;;;;;5002012;28;20051;-43
2022/08/07 09:19:06;;;;;;;3.63;0.50;;;;;;;;;;5002839;28;20139;-44
2022/08/07 09:21:48;;;;;;;2.38;0.57;;;;;;;;;;5009633;28;20383;-41
2022/08/07 09:24:26;;;;;;;3.70;0.70;;;;;;;;;;5007097;28;20128;-43
2022/08/07 09:26:57;;;;;;;1.52;0.57;;;;;;;;;;5013208;28;20042;-41
2022/08/07 09:29:29;;;;;;;1.05;0.47;;;;;;;;;;5013222;28;20069;-40
2022/08/07 09:32:04;;;;;;;2.60;0.77;;;;;;;;;;5024108;28;20426;-41
2022/08/07 09:34:43;;;;;;;1.45;0.50;;;;;;;;;;5000811;28;20053;-41
2022/08/07 09:37:18;;;;;;;2.35;0.50;;;;;;;;;;5001141;28;20055;-41
2022/08/07 09:39:48;;;;;;;2.08;0.50;;;;;;;;;;5002251;28;20053;-42
2022/08/07 09:42:24;;;;;;;2.05;0.63;;;;;;;;;;5007555;28;20050;-41
2022/08/07 09:45:00;;;;;;;1.00;0.50;;;;;;;;;;5004497;28;20109;-40
2022/08/07 09:47:36;;;;;;;2.70;0.50;;;;;;;;;;5008068;28;20050;-40
2022/08/07 09:50:13;;;;;;;1.48;0.50;;;;;;;;;;5006404;28;20123;-40
2022/08/07 09:52:46;;;;;;;9.90;4.55;;;;;;;;;;5007422;28;20475;-41
2022/08/07 09:55:26;;;;;;;7.18;2.90;;;;;;;;;;5005535;28;20058;-40
2022/08/07 09:58:27;;;;;;;3.10;1.40;;;;;;;;;;5001494;28;20061;-40
2022/08/07 10:01:09;;;;;;;28.15;17.10;;;;;;;;;;4976984;28;20439;-42
2022/08/07 10:03:49;;;;;;;8.32;4.78;;;;;;;;;;4982296;28;20058;-40
2022/08/07 10:06:29;;;;;;;11.50;6.68;;;;;;;;;;4969629;28;20054;-42
2022/08/07 10:09:09;;;;;;;15.52;10.65;;;;;;;;;;4986284;28;20189;-41
2022/08/07 10:11:45;;;;;;;4.82;2.53;;;;;;;;;;4992479;28;20058;-40
2022/08/07 10:14:21;;;;;;;3.13;1.10;;;;;;;;;;4972992;28;20470;-40
2022/08/07 10:17:05;;;;;;;4.38;0.77;;;;;;;;;;5012218;28;20046;-41
2022/08/07 10:19:51;;;;;;;3.28;1.33;;;;;;;;;;5004769;28;20441;-40
2022/08/07 10:22:32;;;;;;;1.85;0.68;;;;;;;;;;5006899;28;20141;-40
2022/08/07 10:25:25;;;;;;;3.95;1.70;;;;;;;;;;5007166;28;20061;-40
2022/08/07 10:28:07;;;;;;;2.50;0.95;;;;;;;;;;5007391;28;20129;-40
2022/08/07 10:30:42;;;;;;;3.55;1.52;;;;;;;;;;5005722;28;20061;-40
2022/08/07 10:33:39;;;;;;;4.50;2.03;;;;;;;;;;5007117;28;20458;-40
2022/08/07 10:36:15;;;;;;;4.32;1.42;;;;;;;;;;5007195;28;20046;-42
2022/08/07 10:38:49;;;;;;;3.10;0.60;;;;;;;;;;5005333;28;20050;-40
2022/08/07 10:41:24;;;;;;;2.45;0.63;;;;;;;;;;5007223;28;20463;-43
2022/08/07 10:44:04;;;;;;;11.13;4.75;;;;;;;;;;5005246;28;20050;-41
2022/08/07 10:46:39;;;;;;;7.03;3.58;;;;;;;;;;5013860;28;20050;-40
2022/08/07 10:49:20;;;;;;;2.92;1.02;;;;;;;;;;5000361;28;20065;-41
2022/08/07 10:51:51;;;;;;;8.15;3.28;;;;;;;;;;5014562;28;20058;-41
2022/08/07 10:54:21;;;;;;;6.40;2.38;;;;;;;;;;5000086;28;20053;-41
2022/08/07 10:56:54;;;;;;;5.18;2.35;;;;;;;;;;5003593;28;20124;-42
2022/08/07 10:59:39;;;;;;;9.07;3.28;;;;;;;;;;5018941;28;20068;-41
2022/08/07 11:02:14;;;;;;;5.97;1.70;;;;;;;;;;5012634;28;20138;-40
2022/08/07 11:05:01;;;;;;;2.35;0.88;;;;;;;;;;5002108;28;20133;-40
2022/08/07 11:07:36;;;;;;;4.60;0.82;;;;;;;;;;5000170;28;20053;-40
2022/08/07 11:10:08;;;;;;;2.92;0.90;;;;;;;;;;5013639;28;20064;-42
2022/08/07 11:12:40;;;;;;;2.60;0.70;;;;;;;;;;5007202;28;20054;-39
2022/08/07 11:15:11;;;;;;;3.83;1.05;;;;;;;;;;5006754;28;20065;-41
2022/08/07 11:17:54;;;;;;;3.72;0.68;;;;;;;;;;4994350;28;20050;-41
2022/08/07 11:20:22;;;;;;;4.38;0.80;;;;;;;;;;5001354;28;20065;-40
2022/08/07 11:23:05;;;;;;;2.83;0.75;;;;;;;;;;5007459;28;20076;-41
2022/08/07 11:25:35;;;;;;;3.50;0.80;;;;;;;;;;5023927;28;20108;-41
2022/08/07 11:28:06;;;;;;;2.92;0.80;;;;;;;;;;5005620;28;20407;-40
2022/08/07 11:30:42;;;;;;;3.10;0.75;;;;;;;;;;5010831;28;20474;-40
2022/08/07 11:33:25;;;;;;;3.65;0.80;;;;;;;;;;5011324;28;20053;-40
2022/08/07 11:36:10;;;;;;;2.88;0.60;;;;;;;;;;5016193;28;20049;-40
2022/08/07 11:38:46;;;;;;;1.73;0.70;;;;;;;;;;5003744;28;20060;-42
2022/08/07 11:41:17;;;;;;;4.28;1.13;;;;;;;;;;5015099;28;20156;-44
2022/08/07 11:43:50;;;;;;;2.85;0.70;;;;;;;;;;5004814;28;20054;-41
2022/08/07 11:46:30;;;;;;;6.97;1.10;;;;;;;;;;5016538;28;20049;-40
2022/08/07 11:49:20;;;;;;;3.65;0.70;;;;;;;;;;5005649;28;20057;-41
2022/08/07 11:52:05;;;;;;;1.38;0.65;;;;;;;;;;4989181;28;20458;-42
2022/08/07 11:54:41;;;;;;;4.65;1.00;;;;;;;;;;5016833;28;20064;-41
2022/08/07 11:57:22;;;;;;;5.55;0.80;;;;;;;;;;5016617;28;20042;-40
2022/08/07 12:00:05;;;;;;;1.88;0.75;;;;;;;;;;5016132;28;20060;-41
2022/08/07 12:02:48;;;;;;;4.30;0.90;;;;;;;;;;5012594;28;20054;-40
2022/08/07 12:05:19;;;;;;;1.42;0.60;;;;;;;;;;4983686;28;20093;-40
2022/08/07 12:07:54;;;;;;;1.75;0.68;;;;;;;;;;5017672;28;20076;-40
2022/08/07 12:10:38;;;;;;;3.20;0.90;;;;;;;;;;5015898;28;20260;-40
2022/08/07 12:13:11;;;;;;;4.22;1.05;;;;;;;;;;5024409;28;20049;-41
2022/08/07 12:15:41;;;;;;;1.58;0.60;;;;;;;;;;5019627;28;20153;-41
2022/08/07 12:18:13;;;;;;;1.95;0.45;;;;;;;;;;5004484;28;20058;-41
2022/08/07 12:20:46;;;;;;;1.92;0.70;;;;;;;;;;5015968;28;20086;-41
2022/08/07 12:23:22;;;;;;;3.63;0.63;;;;;;;;;;5002964;28;20061;-40
2022/08/07 12:25:53;;;;;;;2.65;0.95;;;;;;;;;;5008292;28;20066;-40
2022/08/07 12:28:23;;;;;;;3.38;0.70;;;;;;;;;;5011118;28;20054;-39
2022/08/07 12:30:54;;;;;;;3.13;0.93;;;;;;;;;;5007262;28;20058;-41
2022/08/07 12:33:23;;;;;;;2.13;0.70;;;;;;;;;;5007719;28;20062;-42
2022/08/07 12:35:52;;;;;;;4.70;1.23;;;;;;;;;;5006299;28;20064;-41
2022/08/07 12:38:21;;;;;;;3.83;0.52;;;;;;;;;;5002712;28;20056;-40
2022/08/07 12:40:48;;;;;;;1.77;0.60;;;;;;;;;;5005815;28;20058;-41
2022/08/07 12:43:19;;;;;;;1.48;0.70;;;;;;;;;;5012934;28;20129;-40
2022/08/07 12:45:51;;;;;;;1.75;0.60;;;;;;;;;;5014588;28;20049;-41
2022/08/07 12:48:22;;;;;;;1.92;0.68;;;;;;;;;;5015445;28;20058;-41
2022/08/07 12:51:14;;;;;;;2.65;0.80;;;;;;;;;;5005428;28;20062;-40
2022/08/07 12:53:51;;;;;;;4.82;0.88;;;;;;;;;;5009891;28;20063;-41
2022/08/07 12:56:25;;;;;;;3.30;0.68;;;;;;;;;;5012845;28;20474;-41
2022/08/07 12:59:06;;;;;;;3.58;0.60;;;;;;;;;;5012597;28;20050;-43
2022/08/07 13:01:52;;;;;;;2.53;0.65;;;;;;;;;;5012588;28;20061;-41
2022/08/07 13:04:44;;;;;;;2.35;0.85;;;;;;;;;;5012896;28;20057;-40
2022/08/07 13:07:28;;;;;;;4.13;0.80;;;;;;;;;;5012351;28;20081;-40
2022/08/07 13:10:19;;;;;;;4.43;0.70;;;;;;;;;;4995185;28;20062;-41
2022/08/07 13:12:56;;;;;;;3.53;0.60;;;;;;;;;;5009007;28;20450;-41
2022/08/07 13:15:28;;;;;;;3.42;0.40;;;;;;;;;;5014296;28;20072;-40
2022/08/07 13:18:05;;;;;;;1.88;0.55;;;;;;;;;;5014349;28;20466;-40
2022/08/07 13:20:49;;;;;;;3.13;0.47;;;;;;;;;;5013147;28;20074;-41
2022/08/07 13:23:20;;;;;;;2.37;0.70;;;;;;;;;;5015350;28;20049;-40
2022/08/07 13:25:58;;;;;;;3.65;0.52;;;;;;;;;;5014016;28;20064;-41
2022/08/07 13:28:28;;;;;;;3.42;0.60;;;;;;;;;;5019322;28;20133;-40
2022/08/07 13:31:03;;;;;;;5.90;1.63;;;;;;;;;;5013754;28;20398;-41
2022/08/07 13:33:35;;;;;;;1.35;0.60;;;;;;;;;;5014771;28;20136;-42
2022/08/07 13:36:09;;;;;;;5.40;0.80;;;;;;;;;;5006033;28;20058;-41
2022/08/07 13:38:40;;;;;;;2.47;0.60;;;;;;;;;;5010766;28;20100;-40
2022/08/07 13:41:14;;;;;;;1.52;0.43;;;;;;;;;;5004669;28;20105;-40
2022/08/07 13:43:45;;;;;;;1.65;0.60;;;;;;;;;;5007386;28;20086;-40
2022/08/07 13:46:19;;;;;;;2.50;0.60;;;;;;;;;;5007358;28;20068;-41
2022/08/07 13:48:51;;;;;;;2.95;0.82;;;;;;;;;;5013656;28;20714;-41
2022/08/07 13:51:20;;;;;;;3.65;0.80;;;;;;;;;;5016219;28;20049;-41
2022/08/07 13:53:52;;;;;;;3.15;0.88;;;;;;;;;;5005726;28;20493;-40
2022/08/07 13:56:25;;;;;;;3.80;0.70;;;;;;;;;;5009723;28;20061;-42
2022/08/07 13:59:04;;;;;;;4.28;0.55;;;;;;;;;;5003353;28;20129;-42
2022/08/07 14:01:46;;;;;;;3.08;0.70;;;;;;;;;;5007726;28;20557;-40
2022/08/07 14:04:24;;;;;;;3.50;0.68;;;;;;;;;;5008121;28;20065;-42
2022/08/07 14:06:52;;;;;;;1.77;0.50;;;;;;;;;;5014022;28;20072;-40
2022/08/07 14:09:20;;;;;;;6.63;1.23;;;;;;;;;;5013586;28;20354;-41
2022/08/07 14:11:53;;;;;;;3.38;0.68;;;;;;;;;;5004970;28;20050;-40
2022/08/07 14:14:24;;;;;;;3.40;0.80;;;;;;;;;;5007426;28;20054;-40
2022/08/07 14:17:00;;;;;;;2.40;0.60;;;;;;;;;;5005378;28;20053;-41
2022/08/07 14:19:35;;;;;;;2.83;0.50;;;;;;;;;;5014167;28;20054;-40
2022/08/07 14:22:02;;;;;;;4.20;0.90;;;;;;;;;;5012910;28;20046;-41
2022/08/07 14:24:33;;;;;;;2.92;0.82;;;;;;;;;;5003016;28;20450;-40
2022/08/07 14:27:05;;;;;;;4.93;0.70;;;;;;;;;;5011893;28;20061;-40
2022/08/07 14:29:35;;;;;;;3.05;0.63;;;;;;;;;;5013154;28;20112;-41
2022/08/07 14:32:06;;;;;;;2.42;0.90;;;;;;;;;;5007725;28;20050;-39
2022/08/07 14:34:37;;;;;;;2.70;0.60;;;;;;;;;;5007562;28;20057;-40
2022/08/07 14:37:07;;;;;;;2.88;0.93;;;;;;;;;;5001943;28;20058;-42
2022/08/07 14:39:45;;;;;;;2.55;0.70;;;;;;;;;;4999827;28;20050;-40
2022/08/07 14:42:13;;;;;;;1.83;0.70;;;;;;;;;;5003908;28;20046;-40
2022/08/07 14:44:47;;;;;;;2.20;0.60;;;;;;;;;;5006784;28;20050;-40
2022/08/07 14:47:31;;;;;;;3.25;0.73;;;;;;;;;;5013163;28;20172;-41
2022/08/07 14:49:59;;;;;;;4.13;1.05;;;;;;;;;;5009280;28;20489;-39
2022/08/07 14:52:32;;;;;;;4.97;0.95;;;;;;;;;;5014050;28;20053;-40
2022/08/07 14:55:04;;;;;;;2.83;0.60;;;;;;;;;;4994875;28;20089;-40
2022/08/07 14:57:38;;;;;;;2.42;0.82;;;;;;;;;;5013800;28;20081;-41
2022/08/07 15:00:09;;;;;;;4.20;1.05;;;;;;;;;;5026499;28;20100;-40
2022/08/07 15:02:39;;;;;;;3.38;0.80;;;;;;;;;;5024810;28;20061;-40
2022/08/07 15:05:08;;;;;;;3.20;0.73;;;;;;;;;;5006780;28;20058;-40
2022/08/07 15:07:37;;;;;;;3.65;0.80;;;;;;;;;;5010996;28;20061;-40
2022/08/07 15:10:04;;;;;;;3.00;0.95;;;;;;;;;;5023171;28;20119;-40
2022/08/07 15:12:37;;;;;;;2.38;0.90;;;;;;;;;;5004616;28;20060;-40
2022/08/07 15:15:08;;;;;;;4.82;1.10;;;;;;;;;;5004268;28;20066;-39
2022/08/07 15:17:40;;;;;;;3.13;0.70;;;;;;;;;;5010820;28;20057;-40
2022/08/07 15:20:11;;;;;;;4.20;0.80;;;;;;;;;;5020896;28;20473;-40
2022/08/07 15:22:47;;;;;;;2.25;0.95;;;;;;;;;;5006559;28;20065;-40